Fenelton, PA (16034)

8:50 AM EDT on September 01, 2014 (GMT -0400)
Windy Hill Station | Change Station
CLOSE
Current Station
Personal Weather Station
Location: Butler, PA
Elevation: 1362 ft
Nearby Weather Stations

Elev 1362 ft 40.90 °N, 79.83 °W | Updated 6 minutes ago

Overcast
Overcast
73.6 °F
Feels Like 73 °F
N
2.7
Wind Variable Wind from South

Today
High -- | Low -- °F
--% Chance of Precip.
Yesterday
High -- | Low -- °F
Precip. -- in
6:45 AM 7:51 PM
Waxing Crescent, 40% visible
Pressure 30.06 in
Visibility 5.0 miles
Clouds Mostly Cloudy 3200 ft
Mostly Cloudy 6500 ft
Heat Index 73 °F
Dew Point 69 °F
Humidity 85%
Rainfall 0.00 in
Snow Depth Not available.
UV 1 out of 12
Pollen 9.20 out of 12
Ozone Good
PM2.5 Good
Flu Activity Not available.
METAR KBTP 011215Z AUTO 00000KT 5SM BKN032 BKN065 21/19 A3006 RMK AO1

More Conditions Fewer Conditions

Pressure 30.06 in
Visibility 5.0 miles
Clouds Mostly Cloudy 3200 ft
Mostly Cloudy 6500 ft
Heat Index 73 °F
Dew Point 69 °F
Humidity 85%
Rainfall 0.00 in
Snow Depth Not available.
UV 1 out of 12
Pollen 9.20 out of 12
Ozone Good
PM2.5 Good
Flu Activity Not available.
METAR KBTP 011215Z AUTO 00000KT 5SM BKN032 BKN065 21/19 A3006 RMK AO1

More Conditions Fewer Conditions

10-Day Weather Forecast

Almanac

Astronomy

Sep. 01, 2014 Rise Set
Actual Time 6:45 AM EDT 7:51 PM EDT
Civil Twilight 6:17 AM EDT 8:19 PM EDT
Nautical Twilight 5:43 AM EDT 8:52 PM EDT
Astronomical Twilight 5:08 AM EDT 9:27 PM EDT
Moon 1:32 PM EDT 11:48 PM EDT
Length of Visible Light 14h 01m
Length of Day
13h 05m
Tomorrow will be 2m 37s shorter.
Waxing Crescent, 40% of the Moon is Illuminated
Today
Waxing Crescent
Sep 2
First Quarter
Sep 8
Full
Sep 15
Last Quarter
Sep 24
New

Today's Extremes

State Highs State Lows

Community

WunderPhotos

Upload Photos

1,749,199 photos uploaded!

Nearby

Air Quality

  Air Quality AQ Index Pollutant
Yesterday Good
PM2.5
Yesterday Good
OZONE
Current Good
PM2.5
Current Good
OZONE
Monday Moderate
PM2.5
Monday Good
OZONE
Tuesday Moderate
PM2.5
Tuesday Good
OZONE
Wednesday Good
PM2.5
Wednesday Good
OZONE

Snow Depth

Station Depth Elevation
No new snow has been reported.

Earthquake Activity

City Distance Mag. Time & Date
No recent earthquake activity has been reported nearby.
Minimum magnitude displayed is 2.5.

Coastal Water Temperatures

Place Temperature
No Stations Reporting

Nearby Weather Stations